createdAt,value
2019-02-24T00:00:38.161Z,103867.59
2019-02-24T00:03:05.422Z,103863.67
2019-02-24T00:05:32.776Z,103867.59
2019-02-24T00:08:00.064Z,103863.11
2019-02-24T00:10:27.403Z,103863.11
2019-02-24T00:12:54.803Z,103870.41
2019-02-24T00:15:22.058Z,103863.79
2019-02-24T00:17:49.374Z,103868.48
2019-02-24T00:20:16.657Z,103868.30
2019-02-24T00:22:43.946Z,103870.73
2019-02-24T00:25:11.295Z,103872.82
2019-02-24T00:27:38.550Z,103874.52
2019-02-24T00:30:05.958Z,103867.81
2019-02-24T00:32:34.476Z,103873.63
2019-02-24T00:35:01.852Z,103864.02
2019-02-24T00:37:29.172Z,103854.75
2019-02-24T00:39:56.421Z,103849.18
2019-02-24T00:42:23.670Z,103846.44
2019-02-24T00:44:50.965Z,103853.17
2019-02-24T00:47:18.317Z,103854.16
2019-02-24T00:49:45.616Z,103860.88
2019-02-24T00:52:12.851Z,103859.97
2019-02-24T00:54:40.160Z,103850.67
2019-02-24T00:57:07.400Z,103849.75
2019-02-24T00:59:34.639Z,103849.96
2019-02-24T01:02:01.929Z,103847.95
2019-02-24T01:04:29.189Z,103847.45
2019-02-24T01:06:56.454Z,103851.86
2019-02-24T01:09:23.865Z,103850.66
2019-02-24T01:11:51.119Z,103848.71
2019-02-24T01:14:18.362Z,103848.19
2019-02-24T01:16:46.067Z,103837.66
2019-02-24T01:19:13.323Z,103840.99
2019-02-24T01:21:40.651Z,103834.55
2019-02-24T01:24:07.925Z,103834.90
2019-02-24T01:26:35.175Z,103827.33
2019-02-24T01:29:02.464Z,103830.52
2019-02-24T01:31:29.721Z,103829.43
2019-02-24T01:33:57.010Z,103827.21
2019-02-24T01:36:24.307Z,103826.83
2019-02-24T01:38:51.570Z,103820.13
2019-02-24T01:41:18.834Z,103823.52
2019-02-24T01:43:46.139Z,103827.95
2019-02-24T01:46:13.385Z,103823.72
2019-02-24T01:48:40.689Z,103821.89
2019-02-24T01:51:08.012Z,103825.41
2019-02-24T01:53:35.269Z,103821.11
2019-02-24T01:56:02.559Z,103828.93
2019-02-24T01:58:35.170Z,103833.64
2019-02-24T02:00:59.007Z,103826.84
2019-02-24T02:03:26.289Z,103839.38
2019-02-24T02:05:53.626Z,103827.16
2019-02-24T02:08:20.916Z,103833.99
2019-02-24T02:10:48.221Z,103838.47
2019-02-24T02:13:15.516Z,103839.00
2019-02-24T02:15:42.806Z,103838.23
2019-02-24T02:18:10.056Z,103842.31
2019-02-24T02:20:37.342Z,103849.95
2019-02-24T02:23:04.605Z,103841.78
2019-02-24T02:25:31.927Z,103840.69
2019-02-24T02:27:59.204Z,103836.59
2019-02-24T02:30:26.498Z,103831.80
2019-02-24T02:32:53.796Z,103837.07
2019-02-24T02:35:21.246Z,103844.17
2019-02-24T02:37:48.553Z,103846.98
2019-02-24T02:40:15.924Z,103847.95
2019-02-24T02:43:01.893Z,103847.42
2019-02-24T02:45:29.258Z,103848.93
2019-02-24T02:47:56.516Z,103845.41
2019-02-24T02:50:23.796Z,103840.41
2019-02-24T02:52:51.065Z,103836.32
2019-02-24T02:55:21.600Z,103842.45
2019-02-24T02:57:53.248Z,103842.45
2019-02-24T03:00:33.561Z,103851.80
2019-02-24T03:03:00.842Z,103859.22
2019-02-24T03:05:28.353Z,103848.23
2019-02-24T03:08:14.286Z,103840.61
2019-02-24T03:10:41.641Z,103829.61
2019-02-24T03:13:09.011Z,103817.00
2019-02-24T03:15:36.295Z,103814.66
2019-02-24T03:18:03.541Z,103802.09
2019-02-24T03:20:31.021Z,103803.61
2019-02-24T03:22:58.296Z,103804.06
2019-02-24T03:25:25.560Z,103798.48
2019-02-24T03:27:52.940Z,103812.66
2019-02-24T03:30:20.154Z,103811.38
2019-02-24T03:32:47.450Z,103806.55
2019-02-24T03:35:14.745Z,103812.47
2019-02-24T03:37:42.072Z,103805.44
2019-02-24T03:40:09.448Z,103809.34
2019-02-24T03:42:36.697Z,103816.23
2019-02-24T03:45:04.203Z,103814.36
2019-02-24T03:47:31.531Z,103803.63
2019-02-24T03:49:58.867Z,103809.21
2019-02-24T03:52:26.110Z,103817.22
2019-02-24T03:54:53.482Z,103819.63
2019-02-24T03:57:20.741Z,103813.50
2019-02-24T03:59:48.146Z,103806.61
2019-02-24T04:02:15.524Z,103804.20
2019-02-24T04:04:42.831Z,103800.84
2019-02-24T04:07:10.106Z,103802.52
2019-02-24T04:09:37.441Z,103803.11
2019-02-24T04:12:04.704Z,103800.36
2019-02-24T04:14:31.986Z,103804.08
2019-02-24T04:16:59.285Z,103812.27
2019-02-24T04:19:26.968Z,103809.48
2019-02-24T04:21:55.604Z,103802.13
2019-02-24T04:24:23.302Z,103807.97
2019-02-24T04:26:50.593Z,103812.79
2019-02-24T04:29:24.508Z,103811.29
2019-02-24T04:31:47.172Z,103814.04
2019-02-24T04:34:14.444Z,103814.61
2019-02-24T04:36:41.766Z,103811.62
2019-02-24T04:39:09.089Z,103809.41
2019-02-24T04:41:36.414Z,103799.73
2019-02-24T04:44:03.709Z,103804.02
2019-02-24T04:46:31.131Z,103800.11
2019-02-24T04:48:58.472Z,103799.78
2019-02-24T04:51:25.799Z,103797.19
2019-02-24T04:53:53.230Z,103804.60
2019-02-24T04:56:20.480Z,103809.63
2019-02-24T04:58:49.455Z,103808.91
2019-02-24T05:01:16.832Z,103815.05
2019-02-24T05:03:44.260Z,103814.47
2019-02-24T05:06:12.219Z,103821.12
2019-02-24T05:08:39.509Z,103816.48
2019-02-24T05:11:06.753Z,103817.41
2019-02-24T05:13:34.038Z,103825.21
2019-02-24T05:16:03.855Z,103829.31
2019-02-24T05:18:31.110Z,103840.44
2019-02-24T05:20:58.436Z,103838.02
2019-02-24T05:23:25.734Z,103840.25
2019-02-24T05:25:55.766Z,103855.27
2019-02-24T05:28:23.095Z,103852.67
2019-02-24T05:30:50.353Z,103854.73
2019-02-24T05:33:17.627Z,103846.03
2019-02-24T05:35:44.969Z,103842.85
2019-02-24T05:38:12.239Z,103843.42
2019-02-24T05:40:39.549Z,103844.15
2019-02-24T05:43:06.907Z,103844.00
2019-02-24T05:45:34.189Z,103842.90
2019-02-24T05:48:01.487Z,103849.06
2019-02-24T05:50:32.497Z,103853.16
2019-02-24T05:52:59.959Z,103863.95
2019-02-24T05:55:27.375Z,103860.05
2019-02-24T05:57:55.084Z,103864.10
2019-02-24T06:00:22.521Z,103865.25
2019-02-24T06:02:49.958Z,103862.08
2019-02-24T06:05:17.400Z,103867.66
2019-02-24T06:07:44.721Z,103860.45
2019-02-24T06:10:12.036Z,103865.50
2019-02-24T06:12:39.352Z,103864.39
2019-02-24T06:15:06.739Z,103858.85
2019-02-24T06:17:33.987Z,103866.47
2019-02-24T06:20:01.325Z,103881.39
2019-02-24T06:22:28.587Z,103879.95
2019-02-24T06:24:55.867Z,103879.23
2019-02-24T06:27:23.169Z,103875.86
2019-02-24T06:29:50.413Z,103883.08
2019-02-24T06:32:17.653Z,103878.45
2019-02-24T06:34:44.954Z,103878.46
2019-02-24T06:37:12.212Z,103884.23
2019-02-24T06:39:39.514Z,103885.77
2019-02-24T06:42:06.862Z,103895.02
2019-02-24T06:44:34.123Z,103893.34
2019-02-24T06:47:01.397Z,103894.44
2019-02-24T06:49:28.693Z,103892.56
2019-02-24T06:51:57.421Z,103890.88
2019-02-24T06:54:24.726Z,103889.58
2019-02-24T06:56:52.031Z,103887.36
2019-02-24T06:59:19.370Z,103892.03
2019-02-24T07:01:47.793Z,103899.06
2019-02-24T07:04:15.141Z,103900.75
2019-02-24T07:06:42.459Z,103905.18
2019-02-24T07:09:09.793Z,103902.23
2019-02-24T07:11:37.118Z,103894.20
2019-02-24T07:14:04.395Z,103891.80
2019-02-24T07:16:31.640Z,103889.38
2019-02-24T07:19:00.086Z,103893.81
2019-02-24T07:21:27.350Z,103886.78
2019-02-24T07:23:54.728Z,103895.64
2019-02-24T07:26:22.037Z,103882.98
2019-02-24T07:28:49.339Z,103884.85
2019-02-24T07:31:16.669Z,103888.52
2019-02-24T07:33:43.966Z,103887.50
2019-02-24T07:36:11.326Z,103890.58
2019-02-24T07:38:38.670Z,103893.64
2019-02-24T07:41:05.983Z,103901.33
2019-02-24T07:43:33.301Z,103914.41
2019-02-24T07:46:00.695Z,103906.69
2019-02-24T07:48:28.075Z,103912.53
2019-02-24T07:50:55.426Z,103915.25
2019-02-24T07:53:22.754Z,103918.30
2019-02-24T07:55:50.008Z,103918.73
2019-02-24T07:58:17.524Z,103922.59
2019-02-24T08:00:46.565Z,103915.91
2019-02-24T08:03:14.040Z,103913.09
2019-02-24T08:05:41.413Z,103904.59
2019-02-24T08:08:16.235Z,103891.07
2019-02-24T08:10:38.341Z,103891.36
2019-02-24T08:13:05.600Z,103890.80
2019-02-24T08:15:32.868Z,103885.20
2019-02-24T08:18:01.045Z,103866.70
2019-02-24T08:20:28.351Z,103862.67
2019-02-24T08:22:55.595Z,103870.80
2019-02-24T08:25:23.196Z,103872.09
2019-02-24T08:27:50.513Z,103879.04
2019-02-24T08:30:17.780Z,103878.61
2019-02-24T08:32:45.026Z,103880.25
2019-02-24T08:35:12.959Z,103893.58
2019-02-24T08:37:40.709Z,103907.56
2019-02-24T08:40:08.731Z,103903.38
2019-02-24T08:42:36.069Z,103907.85
2019-02-24T08:45:03.469Z,103912.16
2019-02-24T08:47:30.771Z,103901.07
2019-02-24T08:49:58.025Z,103907.28
2019-02-24T08:52:25.364Z,103903.16
2019-02-24T08:54:52.631Z,103892.52
2019-02-24T08:57:19.897Z,103882.39
2019-02-24T08:59:47.213Z,103880.85
2019-02-24T09:02:14.473Z,103884.17
2019-02-24T09:04:41.765Z,103885.70
2019-02-24T09:07:09.026Z,103891.08
2019-02-24T09:09:36.321Z,103889.42
2019-02-24T09:12:03.618Z,103887.78
2019-02-24T09:14:30.880Z,103883.70
2019-02-24T09:16:58.721Z,103887.56
2019-02-24T09:19:26.037Z,103896.61
2019-02-24T09:21:53.391Z,103907.61
2019-02-24T09:24:20.684Z,103914.39
2019-02-24T09:26:47.970Z,103918.98
2019-02-24T09:29:15.222Z,103923.20
2019-02-24T09:31:42.527Z,103924.11
2019-02-24T09:34:10.166Z,103903.30
2019-02-24T09:36:40.568Z,103903.30
2019-02-24T09:39:07.814Z,103909.15
2019-02-24T09:41:35.229Z,103914.88
2019-02-24T09:44:02.808Z,103908.22
2019-02-24T09:46:30.564Z,103908.22
2019-02-24T09:48:57.874Z,103921.14
2019-02-24T09:51:25.206Z,103916.46
2019-02-24T09:53:52.495Z,103918.93
2019-02-24T09:56:19.835Z,103926.45
2019-02-24T09:58:47.497Z,103926.45
2019-02-24T10:01:17.802Z,103922.89
2019-02-24T10:03:45.075Z,103922.89
2019-02-24T10:06:12.348Z,103918.89
2019-02-24T10:08:39.657Z,103918.89
2019-02-24T10:11:06.923Z,103921.63
2019-02-24T10:13:34.500Z,103910.59
2019-02-24T10:16:02.107Z,103915.34
2019-02-24T10:18:29.375Z,103915.58
2019-02-24T10:20:56.652Z,103920.31
2019-02-24T10:23:24.518Z,103920.31
2019-02-24T10:25:52.404Z,103920.84
2019-02-24T10:28:25.730Z,103922.97
2019-02-24T10:31:05.198Z,103917.70
2019-02-24T10:33:52.237Z,103908.48
2019-02-24T10:36:42.857Z,103908.48
2019-02-24T10:39:13.404Z,103910.80
2019-02-24T10:41:40.952Z,103910.80
2019-02-24T10:44:09.739Z,103929.30
2019-02-24T10:46:37.119Z,103930.47
2019-02-24T10:49:04.430Z,103927.70
2019-02-24T10:51:31.764Z,103930.19
2019-02-24T10:53:59.100Z,103926.23
2019-02-24T10:56:26.360Z,103927.51
2019-02-24T10:58:53.664Z,103938.05
2019-02-24T11:01:29.312Z,103916.97
2019-02-24T11:03:50.886Z,103916.97
2019-02-24T11:06:18.141Z,103926.94
2019-02-24T11:08:45.422Z,103932.39
2019-02-24T11:11:12.679Z,103930.16
2019-02-24T11:13:40.183Z,103930.22
2019-02-24T11:16:07.495Z,103931.11
2019-02-24T11:18:34.844Z,103929.84
2019-02-24T11:21:02.188Z,103933.45
2019-02-24T11:23:29.449Z,103934.47
2019-02-24T11:25:56.752Z,103925.52
2019-02-24T11:28:24.004Z,103930.32
2019-02-24T11:30:51.272Z,103930.66
2019-02-24T11:33:20.505Z,103924.52
2019-02-24T11:35:47.834Z,103920.73
2019-02-24T11:38:15.212Z,103909.84
2019-02-24T11:40:42.688Z,103906.50
2019-02-24T11:43:09.954Z,103903.42
2019-02-24T11:45:37.336Z,103903.89
2019-02-24T11:48:04.704Z,103912.13
2019-02-24T11:50:34.705Z,103914.12
2019-02-24T11:53:02.164Z,103906.39
2019-02-24T11:55:29.441Z,103905.97
2019-02-24T11:57:56.783Z,103905.92
2019-02-24T12:00:26.713Z,103898.83
2019-02-24T12:02:54.012Z,103897.81
2019-02-24T12:05:21.257Z,103893.17
2019-02-24T12:07:48.749Z,103890.34
2019-02-24T12:10:16.014Z,103890.34
2019-02-24T12:12:43.342Z,103888.06
2019-02-24T12:15:11.405Z,103887.56
2019-02-24T12:17:38.872Z,103888.52
2019-02-24T12:20:08.401Z,103881.02
2019-02-24T12:22:35.754Z,103874.91
2019-02-24T12:25:03.331Z,103871.21
2019-02-24T12:27:30.695Z,103872.69
2019-02-24T12:29:58.043Z,103873.13
2019-02-24T12:32:25.316Z,103866.84
2019-02-24T12:34:52.830Z,103862.97
2019-02-24T12:37:21.327Z,103867.02
2019-02-24T12:39:48.606Z,103867.36
2019-02-24T12:42:15.898Z,103864.03
2019-02-24T12:44:45.643Z,103880.15
2019-02-24T12:47:12.913Z,103876.61
2019-02-24T12:49:40.369Z,103878.67
2019-02-24T12:52:07.712Z,103877.58
2019-02-24T12:54:36.323Z,103873.95
2019-02-24T12:57:05.013Z,103882.05
2019-02-24T12:59:33.415Z,103885.41
2019-02-24T13:02:05.721Z,103887.64
2019-02-24T13:04:29.942Z,103885.29
2019-02-24T13:06:57.691Z,103886.12
2019-02-24T13:09:25.114Z,103881.20
2019-02-24T13:11:52.461Z,103886.61
2019-02-24T13:14:19.746Z,103880.30
2019-02-24T13:16:47.020Z,103880.54
2019-02-24T13:19:14.418Z,103886.12
2019-02-24T13:21:41.987Z,103878.10
2019-02-24T13:24:09.272Z,103873.52
2019-02-24T13:26:36.929Z,103866.94
2019-02-24T13:29:04.303Z,103871.63
2019-02-24T13:31:31.682Z,103868.70
2019-02-24T13:33:59.003Z,103869.31
2019-02-24T13:36:26.277Z,103862.88
2019-02-24T13:38:53.543Z,103878.05
2019-02-24T13:41:20.839Z,103878.08
2019-02-24T13:43:48.150Z,103875.52
2019-02-24T13:46:15.442Z,103873.20
2019-02-24T13:48:42.698Z,103868.28
2019-02-24T13:51:10.013Z,103864.73
2019-02-24T13:53:38.187Z,103864.31
2019-02-24T13:56:05.553Z,103861.20
2019-02-24T13:58:32.827Z,103856.89
2019-02-24T14:01:00.134Z,103861.89
2019-02-24T14:03:27.495Z,103863.22
2019-02-24T14:05:54.849Z,103860.48
2019-02-24T14:08:22.152Z,103860.78
2019-02-24T14:10:49.417Z,103856.31
2019-02-24T14:13:16.698Z,103856.70
2019-02-24T14:15:44.012Z,103848.58
2019-02-24T14:18:11.308Z,103844.47
2019-02-24T14:20:39.228Z,103850.19
2019-02-24T14:23:06.547Z,103850.09
2019-02-24T14:25:33.839Z,103836.86
2019-02-24T14:28:01.239Z,103832.49
2019-02-24T14:30:28.536Z,103832.81
2019-02-24T14:32:56.008Z,103833.52
2019-02-24T14:35:24.756Z,103837.98
2019-02-24T14:37:58.478Z,103844.60
2019-02-24T14:40:25.899Z,103841.88
2019-02-24T14:42:53.208Z,103834.21
2019-02-24T14:45:20.587Z,103845.33
2019-02-24T14:47:48.759Z,103844.42
2019-02-24T14:50:17.141Z,103838.39
2019-02-24T14:52:44.451Z,103841.26
2019-02-24T14:55:11.961Z,103843.58
2019-02-24T14:57:42.713Z,103839.00
2019-02-24T15:00:13.120Z,103843.69
2019-02-24T15:02:42.708Z,103835.75
2019-02-24T15:05:09.996Z,103835.95
2019-02-24T15:07:37.273Z,103845.22
2019-02-24T15:10:08.468Z,103850.51
2019-02-24T15:12:35.799Z,103846.92
2019-02-24T15:15:03.857Z,103847.54
2019-02-24T15:17:31.998Z,103856.51
2019-02-24T15:20:04.920Z,103850.28
2019-02-24T15:22:32.973Z,103851.61
2019-02-24T15:25:02.806Z,103857.84
2019-02-24T15:27:30.162Z,103853.26
2019-02-24T15:29:57.441Z,103854.76
2019-02-24T15:32:24.730Z,103866.13
2019-02-24T15:34:52.046Z,103871.46
2019-02-24T15:37:19.405Z,103873.38
2019-02-24T15:39:46.668Z,103870.91
2019-02-24T15:42:14.770Z,103876.59
2019-02-24T15:44:45.397Z,103871.70
2019-02-24T15:47:12.675Z,103866.55
2019-02-24T15:49:44.033Z,103879.99
2019-02-24T15:52:15.510Z,103877.62
2019-02-24T15:54:43.045Z,103864.45
2019-02-24T15:57:18.413Z,103864.88
2019-02-24T15:59:55.427Z,103867.11
2019-02-24T16:02:26.396Z,103874.23
2019-02-24T16:05:02.925Z,103869.53
2019-02-24T16:07:51.265Z,103875.71
2019-02-24T16:10:37.612Z,103874.27
2019-02-24T16:13:16.712Z,103867.45
2019-02-24T16:15:49.926Z,103886.94
2019-02-24T16:18:22.559Z,103878.39
2019-02-24T16:20:55.082Z,103878.39
2019-02-24T16:23:22.603Z,103888.91
2019-02-24T16:25:49.861Z,103896.80
2019-02-24T16:28:27.264Z,103871.69
2019-02-24T16:31:00.162Z,103871.69
2019-02-24T16:33:31.937Z,103882.59
2019-02-24T16:36:03.864Z,103879.97
2019-02-24T16:38:58.390Z,103886.54
2019-02-24T16:41:26.225Z,103884.55
2019-02-24T16:44:27.607Z,103890.47
2019-02-24T16:47:01.992Z,103898.86
2019-02-24T16:49:29.428Z,103901.59
2019-02-24T16:51:57.948Z,103905.05
2019-02-24T16:54:28.949Z,103905.05
2019-02-24T16:57:22.276Z,103907.52
2019-02-24T16:59:50.871Z,103902.16
2019-02-24T17:02:22.982Z,103899.94
2019-02-24T17:04:52.591Z,103878.88
2019-02-24T17:07:32.862Z,103878.88
2019-02-24T17:10:01.466Z,103883.36
2019-02-24T17:12:29.690Z,103868.56
2019-02-24T17:15:00.001Z,103884.09
2019-02-24T17:17:27.267Z,103896.02
2019-02-24T17:22:29.711Z,103893.39
2019-02-24T17:25:12.169Z,103895.23
2019-02-24T17:27:44.843Z,103892.85
2019-02-24T17:30:17.978Z,103902.77
2019-02-24T17:32:55.056Z,103898.18
2019-02-24T17:36:07.717Z,103891.49
2019-02-24T17:42:32.697Z,103898.13
2019-02-24T17:45:00.027Z,103901.45
2019-02-24T17:47:50.932Z,103901.45
2019-02-24T17:50:56.420Z,103906.45
2019-02-24T17:53:23.823Z,103903.41
2019-02-24T17:55:51.275Z,103898.67
2019-02-24T17:58:54.169Z,103903.43
2019-02-24T18:01:21.994Z,103910.23
2019-02-24T18:03:49.387Z,103910.23
2019-02-24T18:06:16.684Z,103907.48
2019-02-24T18:08:43.991Z,103913.66
2019-02-24T18:11:11.222Z,103913.23
2019-02-24T18:13:38.471Z,103913.31
2019-02-24T18:16:05.781Z,103914.53
2019-02-24T18:18:33.024Z,103923.47
2019-02-24T18:21:00.296Z,103929.89
2019-02-24T18:23:27.781Z,103929.53
2019-02-24T18:25:55.160Z,103928.97
2019-02-24T18:28:22.855Z,103934.22
2019-02-24T18:30:50.141Z,103924.64
2019-02-24T18:33:17.434Z,103921.11
2019-02-24T18:35:44.690Z,103921.63
2019-02-24T18:38:11.972Z,103931.76
2019-02-24T18:40:39.315Z,103924.64
2019-02-24T18:43:06.737Z,103926.87
2019-02-24T18:45:33.999Z,103927.11
2019-02-24T18:48:01.311Z,103932.98
2019-02-24T18:50:28.641Z,103935.52
2019-02-24T18:52:55.890Z,103935.52
2019-02-24T18:55:23.205Z,103948.42
2019-02-24T18:57:50.460Z,103954.05
2019-02-24T19:00:18.220Z,103958.45
2019-02-24T19:02:45.493Z,103975.05
2019-02-24T19:05:13.039Z,103985.57
2019-02-24T19:07:40.366Z,103983.28
2019-02-24T19:10:09.353Z,103988.48
2019-02-24T19:12:36.900Z,103989.70
2019-02-24T19:15:04.873Z,103992.15
2019-02-24T19:17:32.138Z,103991.16
2019-02-24T19:19:59.701Z,103994.95
2019-02-24T19:22:26.990Z,103985.70
2019-02-24T19:24:54.232Z,103993.72
2019-02-24T19:27:21.685Z,103994.08
2019-02-24T19:29:49.080Z,103982.92
2019-02-24T19:32:16.309Z,103974.25
2019-02-24T19:34:43.632Z,103973.41
2019-02-24T19:37:11.169Z,103972.33
2019-02-24T19:39:38.437Z,103975.66
2019-02-24T19:42:05.707Z,103987.95
2019-02-24T19:44:32.976Z,103981.93
2019-02-24T19:47:00.215Z,103977.83
2019-02-24T19:49:27.474Z,103976.70
2019-02-24T19:51:54.748Z,103980.86
2019-02-24T19:54:21.986Z,103984.16
2019-02-24T19:56:49.252Z,103985.64
2019-02-24T19:59:16.527Z,103984.95
2019-02-24T20:01:43.765Z,103979.89
2019-02-24T20:04:15.987Z,103983.88
2019-02-24T20:06:40.199Z,103992.81
2019-02-24T20:09:07.737Z,103991.89
2019-02-24T20:11:34.999Z,103997.99
2019-02-24T20:14:02.277Z,103993.84
2019-02-24T20:16:29.517Z,104004.08
2019-02-24T20:18:56.852Z,104006.19
2019-02-24T20:21:24.131Z,104004.29
2019-02-24T20:23:51.461Z,103993.03
2019-02-24T20:26:19.831Z,103998.76
2019-02-24T20:28:47.578Z,104005.08
2019-02-24T20:31:14.966Z,103995.29
2019-02-24T20:33:42.341Z,103994.08
2019-02-24T20:36:10.049Z,103999.64
2019-02-24T20:38:37.306Z,104000.30
2019-02-24T20:41:04.926Z,104002.06
2019-02-24T20:43:32.437Z,104010.83
2019-02-24T20:45:59.707Z,104021.00
2019-02-24T20:48:26.984Z,104008.08
2019-02-24T20:50:54.285Z,104012.95
2019-02-24T20:53:21.561Z,104016.02
2019-02-24T20:55:49.024Z,104016.47
2019-02-24T20:58:16.247Z,104014.66
2019-02-24T21:00:43.682Z,104005.63
2019-02-24T21:03:13.271Z,104006.31
2019-02-24T21:05:40.599Z,104013.50
2019-02-24T21:08:08.110Z,104017.78
2019-02-24T21:10:35.736Z,104024.17
2019-02-24T21:13:03.045Z,104028.09
2019-02-24T21:15:30.294Z,104021.34
2019-02-24T21:17:57.526Z,104017.40
2019-02-24T21:20:26.620Z,104021.56
2019-02-24T21:22:53.975Z,104011.78
2019-02-24T21:25:21.265Z,104016.78
2019-02-24T21:27:48.505Z,104023.46
2019-02-24T21:30:16.067Z,104020.45
2019-02-24T21:32:43.427Z,104025.16
2019-02-24T21:35:10.928Z,104029.09
2019-02-24T21:37:38.169Z,104032.94
2019-02-24T21:40:05.841Z,104036.80
2019-02-24T21:42:33.113Z,104036.28
2019-02-24T21:45:00.338Z,104036.50
2019-02-24T21:47:27.625Z,104030.19
2019-02-24T21:49:54.874Z,104030.19
2019-02-24T21:52:22.117Z,104035.94
2019-02-24T21:54:49.404Z,104034.11
2019-02-24T21:57:16.661Z,104033.03
2019-02-24T21:59:43.901Z,104033.81
2019-02-24T22:02:11.179Z,104034.79
2019-02-24T22:04:38.427Z,104033.35
2019-02-24T22:07:05.672Z,104033.41
2019-02-24T22:09:32.947Z,104028.02
2019-02-24T22:12:00.236Z,104023.58
2019-02-24T22:14:27.512Z,104028.28
2019-02-24T22:16:54.774Z,104024.81
2019-02-24T22:19:22.065Z,104019.11
2019-02-24T22:21:49.376Z,104019.11
2019-02-24T22:24:16.661Z,104020.48
2019-02-24T22:26:43.946Z,104023.10
2019-02-24T22:29:11.196Z,104014.62
2019-02-24T22:31:38.504Z,104013.09
2019-02-24T22:34:05.761Z,104014.78
2019-02-24T22:36:33.003Z,104010.17
2019-02-24T22:39:00.305Z,104013.56
2019-02-24T22:41:27.569Z,104026.69
2019-02-24T22:43:54.871Z,104028.52
2019-02-24T22:46:22.178Z,104027.99
2019-02-24T22:48:49.432Z,104030.61
2019-02-24T22:51:16.735Z,104022.34
2019-02-24T22:53:44.015Z,104016.58
2019-02-24T22:56:11.252Z,104013.97
2019-02-24T22:58:38.533Z,104008.96
2019-02-24T23:01:11.869Z,104001.91
2019-02-24T23:03:40.960Z,103999.73
2019-02-24T23:06:08.224Z,103995.20
2019-02-24T23:08:35.532Z,103986.58
2019-02-24T23:11:02.865Z,103973.91
2019-02-24T23:13:30.104Z,103967.20
2019-02-24T23:15:57.420Z,103953.41
2019-02-24T23:18:24.659Z,103956.02
2019-02-24T23:20:51.983Z,103955.88
2019-02-24T23:23:19.261Z,103962.33
2019-02-24T23:25:46.529Z,103962.23
2019-02-24T23:28:13.812Z,103945.25
2019-02-24T23:30:41.093Z,103941.56
2019-02-24T23:33:08.406Z,103946.91
2019-02-24T23:35:35.694Z,103953.75
2019-02-24T23:38:03.049Z,103948.30
2019-02-24T23:40:30.336Z,103948.05
2019-02-24T23:42:57.588Z,103946.91
2019-02-24T23:45:24.909Z,103954.57
2019-02-24T23:47:52.217Z,103949.73
2019-02-24T23:50:19.486Z,103937.29
2019-02-24T23:52:46.758Z,103945.73
2019-02-24T23:55:14.106Z,103944.89
2019-02-24T23:57:41.341Z,103943.41
